sensor_id;sensor_type;location;lat;lon;timestamp;temperature;humidity
45491;DHT22;31237;45.586;13.782;2022-11-15T00:00:52;9.90;96.70
45491;DHT22;31237;45.586;13.782;2022-11-15T00:03:20;9.90;96.70
45491;DHT22;31237;45.586;13.782;2022-11-15T00:05:46;9.90;96.70
45491;DHT22;31237;45.586;13.782;2022-11-15T00:08:12;9.90;96.70
45491;DHT22;31237;45.586;13.782;2022-11-15T00:10:38;9.90;96.70
45491;DHT22;31237;45.586;13.782;2022-11-15T00:13:08;9.90;96.70
45491;DHT22;31237;45.586;13.782;2022-11-15T00:15:39;9.90;96.70
45491;DHT22;31237;45.586;13.782;2022-11-15T00:18:06;9.80;96.70
45491;DHT22;31237;45.586;13.782;2022-11-15T00:20:36;9.80;96.70
45491;DHT22;31237;45.586;13.782;2022-11-15T00:23:03;9.80;96.80
45491;DHT22;31237;45.586;13.782;2022-11-15T00:25:29;9.80;96.80
45491;DHT22;31237;45.586;13.782;2022-11-15T00:27:56;9.80;96.80
45491;DHT22;31237;45.586;13.782;2022-11-15T00:30:22;9.80;96.80
45491;DHT22;31237;45.586;13.782;2022-11-15T00:32:48;9.80;96.80
45491;DHT22;31237;45.586;13.782;2022-11-15T00:35:14;9.90;96.80
45491;DHT22;31237;45.586;13.782;2022-11-15T00:37:40;9.80;96.80
45491;DHT22;31237;45.586;13.782;2022-11-15T00:40:06;9.80;96.80
45491;DHT22;31237;45.586;13.782;2022-11-15T00:42:32;9.90;96.80
45491;DHT22;31237;45.586;13.782;2022-11-15T00:44:57;9.80;96.80
45491;DHT22;31237;45.586;13.782;2022-11-15T00:47:23;9.90;96.80
45491;DHT22;31237;45.586;13.782;2022-11-15T00:49:49;9.90;96.90
45491;DHT22;31237;45.586;13.782;2022-11-15T00:52:14;9.90;96.90
45491;DHT22;31237;45.586;13.782;2022-11-15T00:54:40;9.90;96.80
45491;DHT22;31237;45.586;13.782;2022-11-15T00:57:06;9.90;96.80
45491;DHT22;31237;45.586;13.782;2022-11-15T00:59:32;9.90;96.80
45491;DHT22;31237;45.586;13.782;2022-11-15T01:01:57;9.90;96.80
45491;DHT22;31237;45.586;13.782;2022-11-15T01:04:23;9.90;96.80
45491;DHT22;31237;45.586;13.782;2022-11-15T01:06:49;9.90;96.80
45491;DHT22;31237;45.586;13.782;2022-11-15T01:09:14;9.90;96.80
45491;DHT22;31237;45.586;13.782;2022-11-15T01:11:40;9.90;96.70
45491;DHT22;31237;45.586;13.782;2022-11-15T01:14:06;9.90;96.70
45491;DHT22;31237;45.586;13.782;2022-11-15T01:16:32;9.90;96.70
45491;DHT22;31237;45.586;13.782;2022-11-15T01:18:58;9.80;96.70
45491;DHT22;31237;45.586;13.782;2022-11-15T01:21:24;9.90;96.70
45491;DHT22;31237;45.586;13.782;2022-11-15T01:23:54;9.80;96.70
45491;DHT22;31237;45.586;13.782;2022-11-15T01:26:21;9.80;96.70
45491;DHT22;31237;45.586;13.782;2022-11-15T01:28:46;9.80;96.70
45491;DHT22;31237;45.586;13.782;2022-11-15T01:31:18;9.80;96.70
45491;DHT22;31237;45.586;13.782;2022-11-15T01:33:45;9.80;96.70
45491;DHT22;31237;45.586;13.782;2022-11-15T01:36:16;9.80;96.70
45491;DHT22;31237;45.586;13.782;2022-11-15T01:38:42;9.80;96.70
45491;DHT22;31237;45.586;13.782;2022-11-15T01:41:26;9.80;96.70
45491;DHT22;31237;45.586;13.782;2022-11-15T01:43:53;9.70;96.60
45491;DHT22;31237;45.586;13.782;2022-11-15T01:46:36;9.70;96.60
45491;DHT22;31237;45.586;13.782;2022-11-15T01:49:13;9.70;96.60
45491;DHT22;31237;45.586;13.782;2022-11-15T01:51:39;9.70;96.70
45491;DHT22;31237;45.586;13.782;2022-11-15T01:54:09;9.70;96.70
45491;DHT22;31237;45.586;13.782;2022-11-15T01:56:44;9.70;96.70
45491;DHT22;31237;45.586;13.782;2022-11-15T01:59:10;9.60;96.60
45491;DHT22;31237;45.586;13.782;2022-11-15T02:01:37;9.60;96.70
45491;DHT22;31237;45.586;13.782;2022-11-15T02:04:18;9.60;96.70
45491;DHT22;31237;45.586;13.782;2022-11-15T02:06:47;9.60;96.70
45491;DHT22;31237;45.586;13.782;2022-11-15T02:09:14;9.50;96.70
45491;DHT22;31237;45.586;13.782;2022-11-15T02:11:40;9.60;96.70
45491;DHT22;31237;45.586;13.782;2022-11-15T02:14:06;9.60;96.80
45491;DHT22;31237;45.586;13.782;2022-11-15T02:22:05;9.60;96.80
45491;DHT22;31237;45.586;13.782;2022-11-15T02:36:01;9.50;96.90
45491;DHT22;31237;45.586;13.782;2022-11-15T02:38:42;9.50;96.90
45491;DHT22;31237;45.586;13.782;2022-11-15T02:41:15;9.50;96.90
45491;DHT22;31237;45.586;13.782;2022-11-15T02:43:54;9.50;96.90
45491;DHT22;31237;45.586;13.782;2022-11-15T02:49:15;9.50;96.90
45491;DHT22;31237;45.586;13.782;2022-11-15T02:51:43;9.50;96.90
45491;DHT22;31237;45.586;13.782;2022-11-15T02:54:17;9.50;96.90
45491;DHT22;31237;45.586;13.782;2022-11-15T02:56:46;9.50;96.90
45491;DHT22;31237;45.586;13.782;2022-11-15T03:08:00;9.50;96.90
45491;DHT22;31237;45.586;13.782;2022-11-15T03:10:28;9.50;96.90
45491;DHT22;31237;45.586;13.782;2022-11-15T03:13:05;9.50;96.90
45491;DHT22;31237;45.586;13.782;2022-11-15T03:15:38;9.50;96.90
45491;DHT22;31237;45.586;13.782;2022-11-15T03:18:13;9.50;96.90
45491;DHT22;31237;45.586;13.782;2022-11-15T03:20:43;9.50;96.90
45491;DHT22;31237;45.586;13.782;2022-11-15T03:23:11;9.50;96.90
45491;DHT22;31237;45.586;13.782;2022-11-15T03:25:42;9.50;96.90
45491;DHT22;31237;45.586;13.782;2022-11-15T03:28:12;9.50;96.90
45491;DHT22;31237;45.586;13.782;2022-11-15T03:30:39;9.50;96.90
45491;DHT22;31237;45.586;13.782;2022-11-15T03:33:05;9.40;96.90
45491;DHT22;31237;45.586;13.782;2022-11-15T03:35:41;9.50;96.90
45491;DHT22;31237;45.586;13.782;2022-11-15T03:41:01;9.40;96.90
45491;DHT22;31237;45.586;13.782;2022-11-15T03:43:30;9.40;96.90
45491;DHT22;31237;45.586;13.782;2022-11-15T03:46:12;9.40;97.00
45491;DHT22;31237;45.586;13.782;2022-11-15T03:48:49;9.40;97.00
45491;DHT22;31237;45.586;13.782;2022-11-15T03:51:16;9.50;97.10
45491;DHT22;31237;45.586;13.782;2022-11-15T03:53:42;9.50;97.10
45491;DHT22;31237;45.586;13.782;2022-11-15T03:56:08;9.50;97.00
45491;DHT22;31237;45.586;13.782;2022-11-15T03:58:34;9.50;97.10
45491;DHT22;31237;45.586;13.782;2022-11-15T04:00:59;9.50;97.10
45491;DHT22;31237;45.586;13.782;2022-11-15T04:03:25;9.50;97.00
45491;DHT22;31237;45.586;13.782;2022-11-15T04:05:51;9.50;97.00
45491;DHT22;31237;45.586;13.782;2022-11-15T04:08:17;9.50;97.00
45491;DHT22;31237;45.586;13.782;2022-11-15T04:10:42;9.50;97.00
45491;DHT22;31237;45.586;13.782;2022-11-15T04:13:08;9.60;97.00
45491;DHT22;31237;45.586;13.782;2022-11-15T04:15:34;9.50;97.00
45491;DHT22;31237;45.586;13.782;2022-11-15T04:18:00;9.60;97.00
45491;DHT22;31237;45.586;13.782;2022-11-15T04:20:28;9.60;97.00
45491;DHT22;31237;45.586;13.782;2022-11-15T04:23:18;9.50;96.90
45491;DHT22;31237;45.586;13.782;2022-11-15T04:26:12;9.60;97.00
45491;DHT22;31237;45.586;13.782;2022-11-15T04:28:38;9.50;97.00
45491;DHT22;31237;45.586;13.782;2022-11-15T04:31:23;9.50;97.00
45491;DHT22;31237;45.586;13.782;2022-11-15T04:33:49;9.50;97.00
45491;DHT22;31237;45.586;13.782;2022-11-15T04:36:15;9.50;97.00
45491;DHT22;31237;45.586;13.782;2022-11-15T04:38:59;9.50;97.00
45491;DHT22;31237;45.586;13.782;2022-11-15T04:41:25;9.50;97.10
45491;DHT22;31237;45.586;13.782;2022-11-15T04:43:50;9.50;97.10
45491;DHT22;31237;45.586;13.782;2022-11-15T04:46:16;9.50;97.10
45491;DHT22;31237;45.586;13.782;2022-11-15T04:48:42;9.60;97.10
45491;DHT22;31237;45.586;13.782;2022-11-15T04:51:08;9.60;97.10
45491;DHT22;31237;45.586;13.782;2022-11-15T04:53:34;9.60;97.10
45491;DHT22;31237;45.586;13.782;2022-11-15T04:55:59;9.70;97.20
45491;DHT22;31237;45.586;13.782;2022-11-15T04:58:25;9.70;97.20
45491;DHT22;31237;45.586;13.782;2022-11-15T05:00:51;9.70;97.20
45491;DHT22;31237;45.586;13.782;2022-11-15T05:03:16;9.70;97.20
45491;DHT22;31237;45.586;13.782;2022-11-15T05:06:01;9.80;97.30
45491;DHT22;31237;45.586;13.782;2022-11-15T05:08:27;9.80;97.20
45491;DHT22;31237;45.586;13.782;2022-11-15T05:10:53;9.80;97.20
45491;DHT22;31237;45.586;13.782;2022-11-15T05:13:18;9.80;97.20
45491;DHT22;31237;45.586;13.782;2022-11-15T05:15:44;9.90;97.30
45491;DHT22;31237;45.586;13.782;2022-11-15T05:18:10;9.90;97.30
45491;DHT22;31237;45.586;13.782;2022-11-15T05:20:36;9.90;97.20
45491;DHT22;31237;45.586;13.782;2022-11-15T05:23:01;9.90;97.20
45491;DHT22;31237;45.586;13.782;2022-11-15T05:25:27;9.90;97.20
45491;DHT22;31237;45.586;13.782;2022-11-15T05:27:53;9.90;97.20
45491;DHT22;31237;45.586;13.782;2022-11-15T05:30:19;9.90;97.20
45491;DHT22;31237;45.586;13.782;2022-11-15T05:32:45;9.90;97.10
45491;DHT22;31237;45.586;13.782;2022-11-15T05:35:21;10.00;97.20
45491;DHT22;31237;45.586;13.782;2022-11-15T05:37:50;10.00;97.20
45491;DHT22;31237;45.586;13.782;2022-11-15T05:40:16;10.00;97.20
45491;DHT22;31237;45.586;13.782;2022-11-15T05:42:42;10.00;97.20
45491;DHT22;31237;45.586;13.782;2022-11-15T05:45:08;10.00;97.20
45491;DHT22;31237;45.586;13.782;2022-11-15T05:47:36;10.00;97.20
45491;DHT22;31237;45.586;13.782;2022-11-15T05:50:02;10.00;97.20
45491;DHT22;31237;45.586;13.782;2022-11-15T05:52:29;10.00;97.20
45491;DHT22;31237;45.586;13.782;2022-11-15T05:54:57;10.00;97.20
45491;DHT22;31237;45.586;13.782;2022-11-15T05:57:24;10.00;97.20
45491;DHT22;31237;45.586;13.782;2022-11-15T05:59:50;10.00;97.20
45491;DHT22;31237;45.586;13.782;2022-11-15T06:02:16;10.00;97.20
45491;DHT22;31237;45.586;13.782;2022-11-15T06:04:41;10.00;97.20
45491;DHT22;31237;45.586;13.782;2022-11-15T06:07:07;10.10;97.30
45491;DHT22;31237;45.586;13.782;2022-11-15T06:09:33;10.10;97.30
45491;DHT22;31237;45.586;13.782;2022-11-15T06:11:58;10.10;97.40
45491;DHT22;31237;45.586;13.782;2022-11-15T06:14:24;10.10;97.40
45491;DHT22;31237;45.586;13.782;2022-11-15T06:16:50;10.10;97.40
45491;DHT22;31237;45.586;13.782;2022-11-15T06:19:15;10.10;97.40
45491;DHT22;31237;45.586;13.782;2022-11-15T06:21:42;10.20;97.40
45491;DHT22;31237;45.586;13.782;2022-11-15T06:24:08;10.20;97.40
45491;DHT22;31237;45.586;13.782;2022-11-15T06:26:33;10.20;97.40
45491;DHT22;31237;45.586;13.782;2022-11-15T06:28:59;10.20;97.40
45491;DHT22;31237;45.586;13.782;2022-11-15T06:31:25;10.30;97.40
45491;DHT22;31237;45.586;13.782;2022-11-15T06:33:51;10.30;97.40
45491;DHT22;31237;45.586;13.782;2022-11-15T06:36:17;10.30;97.40
45491;DHT22;31237;45.586;13.782;2022-11-15T06:38:44;10.30;97.40
45491;DHT22;31237;45.586;13.782;2022-11-15T06:41:11;10.30;97.40
45491;DHT22;31237;45.586;13.782;2022-11-15T06:43:37;10.40;97.50
45491;DHT22;31237;45.586;13.782;2022-11-15T06:46:04;10.40;97.50
45491;DHT22;31237;45.586;13.782;2022-11-15T06:48:31;10.40;97.50
45491;DHT22;31237;45.586;13.782;2022-11-15T06:50:59;10.40;97.60
45491;DHT22;31237;45.586;13.782;2022-11-15T06:53:26;10.40;97.60
45491;DHT22;31237;45.586;13.782;2022-11-15T06:55:52;10.40;97.60
45491;DHT22;31237;45.586;13.782;2022-11-15T06:58:18;10.50;97.60
45491;DHT22;31237;45.586;13.782;2022-11-15T07:00:44;10.50;97.60
45491;DHT22;31237;45.586;13.782;2022-11-15T07:03:10;10.50;97.60
45491;DHT22;31237;45.586;13.782;2022-11-15T07:05:36;10.50;97.60
45491;DHT22;31237;45.586;13.782;2022-11-15T07:08:02;10.60;97.70
45491;DHT22;31237;45.586;13.782;2022-11-15T07:10:28;10.50;97.60
45491;DHT22;31237;45.586;13.782;2022-11-15T07:12:55;10.60;97.60
45491;DHT22;31237;45.586;13.782;2022-11-15T07:15:23;10.60;97.70
45491;DHT22;31237;45.586;13.782;2022-11-15T07:17:49;10.60;97.60
45491;DHT22;31237;45.586;13.782;2022-11-15T07:20:15;10.60;97.60
45491;DHT22;31237;45.586;13.782;2022-11-15T07:22:42;10.60;97.70
45491;DHT22;31237;45.586;13.782;2022-11-15T07:25:08;10.60;97.70
45491;DHT22;31237;45.586;13.782;2022-11-15T07:27:35;10.70;97.70
45491;DHT22;31237;45.586;13.782;2022-11-15T07:30:00;10.70;97.80
45491;DHT22;31237;45.586;13.782;2022-11-15T07:32:26;10.70;97.80
45491;DHT22;31237;45.586;13.782;2022-11-15T07:34:52;10.80;97.80
45491;DHT22;31237;45.586;13.782;2022-11-15T07:37:18;10.90;97.80
45491;DHT22;31237;45.586;13.782;2022-11-15T07:39:44;10.90;97.90
45491;DHT22;31237;45.586;13.782;2022-11-15T07:42:09;11.00;97.90
45491;DHT22;31237;45.586;13.782;2022-11-15T07:44:55;11.00;97.90
45491;DHT22;31237;45.586;13.782;2022-11-15T07:47:22;11.10;97.90
45491;DHT22;31237;45.586;13.782;2022-11-15T07:49:48;11.10;97.90
45491;DHT22;31237;45.586;13.782;2022-11-15T07:52:13;11.20;98.00
45491;DHT22;31237;45.586;13.782;2022-11-15T07:54:39;11.30;98.00
45491;DHT22;31237;45.586;13.782;2022-11-15T07:57:05;11.40;98.00
45491;DHT22;31237;45.586;13.782;2022-11-15T07:59:32;11.40;98.00
45491;DHT22;31237;45.586;13.782;2022-11-15T08:01:58;11.50;97.90
45491;DHT22;31237;45.586;13.782;2022-11-15T08:04:24;11.50;97.90
45491;DHT22;31237;45.586;13.782;2022-11-15T08:06:49;11.60;97.90
45491;DHT22;31237;45.586;13.782;2022-11-15T08:09:15;11.60;97.90
45491;DHT22;31237;45.586;13.782;2022-11-15T08:11:41;11.60;97.80
45491;DHT22;31237;45.586;13.782;2022-11-15T08:14:06;11.70;97.80
45491;DHT22;31237;45.586;13.782;2022-11-15T08:16:32;11.80;97.80
45491;DHT22;31237;45.586;13.782;2022-11-15T08:18:58;11.90;97.80
45491;DHT22;31237;45.586;13.782;2022-11-15T08:21:24;11.90;97.80
45491;DHT22;31237;45.586;13.782;2022-11-15T08:23:50;12.00;97.80
45491;DHT22;31237;45.586;13.782;2022-11-15T08:26:16;12.00;97.70
45491;DHT22;31237;45.586;13.782;2022-11-15T08:28:42;12.00;97.70
45491;DHT22;31237;45.586;13.782;2022-11-15T08:31:13;12.10;97.60
45491;DHT22;31237;45.586;13.782;2022-11-15T08:33:40;12.10;97.50
45491;DHT22;31237;45.586;13.782;2022-11-15T08:36:05;12.20;97.50
45491;DHT22;31237;45.586;13.782;2022-11-15T08:38:31;12.20;97.40
45491;DHT22;31237;45.586;13.782;2022-11-15T08:41:03;12.20;97.60
45491;DHT22;31237;45.586;13.782;2022-11-15T08:43:30;12.30;97.40
45491;DHT22;31237;45.586;13.782;2022-11-15T08:45:56;12.30;97.30
45491;DHT22;31237;45.586;13.782;2022-11-15T08:48:22;12.30;97.30
45491;DHT22;31237;45.586;13.782;2022-11-15T08:50:48;12.30;97.20
45491;DHT22;31237;45.586;13.782;2022-11-15T08:53:14;12.40;97.20
45491;DHT22;31237;45.586;13.782;2022-11-15T08:55:40;12.40;97.20
45491;DHT22;31237;45.586;13.782;2022-11-15T08:58:06;12.50;97.20
45491;DHT22;31237;45.586;13.782;2022-11-15T09:00:32;12.50;97.10
45491;DHT22;31237;45.586;13.782;2022-11-15T09:02:59;12.50;97.10
45491;DHT22;31237;45.586;13.782;2022-11-15T09:05:25;12.50;97.10
45491;DHT22;31237;45.586;13.782;2022-11-15T09:07:54;12.60;97.00
45491;DHT22;31237;45.586;13.782;2022-11-15T09:10:21;12.60;97.00
45491;DHT22;31237;45.586;13.782;2022-11-15T09:12:46;12.70;97.10
45491;DHT22;31237;45.586;13.782;2022-11-15T09:15:14;12.70;97.10
45491;DHT22;31237;45.586;13.782;2022-11-15T09:17:41;12.80;97.10
45491;DHT22;31237;45.586;13.782;2022-11-15T09:20:08;12.80;97.10
45491;DHT22;31237;45.586;13.782;2022-11-15T09:22:34;12.90;97.00
45491;DHT22;31237;45.586;13.782;2022-11-15T09:25:02;12.90;96.90
45491;DHT22;31237;45.586;13.782;2022-11-15T09:27:31;12.90;96.70
45491;DHT22;31237;45.586;13.782;2022-11-15T09:29:57;13.00;96.70
45491;DHT22;31237;45.586;13.782;2022-11-15T09:32:23;13.00;96.60
45491;DHT22;31237;45.586;13.782;2022-11-15T09:34:50;12.90;96.50
45491;DHT22;31237;45.586;13.782;2022-11-15T09:37:16;13.00;96.50
45491;DHT22;31237;45.586;13.782;2022-11-15T09:39:42;13.00;96.50
45491;DHT22;31237;45.586;13.782;2022-11-15T09:47:48;13.20;96.50
45491;DHT22;31237;45.586;13.782;2022-11-15T09:50:43;13.20;96.40
45491;DHT22;31237;45.586;13.782;2022-11-15T09:53:18;13.20;96.20
45491;DHT22;31237;45.586;13.782;2022-11-15T09:55:59;13.20;96.10
45491;DHT22;31237;45.586;13.782;2022-11-15T09:58:28;13.30;96.00
45491;DHT22;31237;45.586;13.782;2022-11-15T10:00:57;13.20;96.00
45491;DHT22;31237;45.586;13.782;2022-11-15T10:03:35;13.30;95.90
45491;DHT22;31237;45.586;13.782;2022-11-15T10:06:04;13.20;95.90
45491;DHT22;31237;45.586;13.782;2022-11-15T10:11:23;13.20;95.90
45491;DHT22;31237;45.586;13.782;2022-11-15T10:13:51;13.20;95.90
45491;DHT22;31237;45.586;13.782;2022-11-15T10:19:08;13.20;95.80
45491;DHT22;31237;45.586;13.782;2022-11-15T10:24:24;13.30;95.90
45491;DHT22;31237;45.586;13.782;2022-11-15T10:26:51;13.30;95.90
45491;DHT22;31237;45.586;13.782;2022-11-15T10:29:22;13.30;95.90
45491;DHT22;31237;45.586;13.782;2022-11-15T10:31:48;13.40;95.90
45491;DHT22;31237;45.586;13.782;2022-11-15T10:34:26;13.50;95.90
45491;DHT22;31237;45.586;13.782;2022-11-15T10:36:59;13.50;95.90
45491;DHT22;31237;45.586;13.782;2022-11-15T10:39:27;13.60;95.80
45491;DHT22;31237;45.586;13.782;2022-11-15T10:41:53;13.60;95.60
45491;DHT22;31237;45.586;13.782;2022-11-15T10:44:30;13.70;95.50
45491;DHT22;31237;45.586;13.782;2022-11-15T10:49:26;13.70;95.30
45491;DHT22;31237;45.586;13.782;2022-11-15T10:54:47;13.70;95.30
45491;DHT22;31237;45.586;13.782;2022-11-15T10:57:14;13.70;95.30
45491;DHT22;31237;45.586;13.782;2022-11-15T10:59:48;13.70;95.30
45491;DHT22;31237;45.586;13.782;2022-11-15T11:02:31;13.80;95.30
45491;DHT22;31237;45.586;13.782;2022-11-15T11:04:59;13.80;95.40
45491;DHT22;31237;45.586;13.782;2022-11-15T11:07:27;13.90;95.30
45491;DHT22;31237;45.586;13.782;2022-11-15T11:10:13;13.90;95.20
45491;DHT22;31237;45.586;13.782;2022-11-15T11:12:42;14.00;95.10
45491;DHT22;31237;45.586;13.782;2022-11-15T11:15:16;14.10;95.10
45491;DHT22;31237;45.586;13.782;2022-11-15T11:36:58;14.60;94.20
45491;DHT22;31237;45.586;13.782;2022-11-15T11:42:15;14.70;93.90
45491;DHT22;31237;45.586;13.782;2022-11-15T11:47:32;14.60;93.60
45491;DHT22;31237;45.586;13.782;2022-11-15T11:50:10;14.60;93.60
45491;DHT22;31237;45.586;13.782;2022-11-15T11:55:25;14.50;93.70
45491;DHT22;31237;45.586;13.782;2022-11-15T12:03:03;14.60;93.80
45491;DHT22;31237;45.586;13.782;2022-11-15T12:05:41;14.60;93.80
45491;DHT22;31237;45.586;13.782;2022-11-15T12:13:53;14.80;93.40
45491;DHT22;31237;45.586;13.782;2022-11-15T12:16:26;14.80;93.30
45491;DHT22;31237;45.586;13.782;2022-11-15T12:18:54;14.80;93.20
45491;DHT22;31237;45.586;13.782;2022-11-15T12:23:57;14.70;92.90
45491;DHT22;31237;45.586;13.782;2022-11-15T12:26:33;14.70;93.10
45491;DHT22;31237;45.586;13.782;2022-11-15T12:29:11;14.60;93.20
45491;DHT22;31237;45.586;13.782;2022-11-15T12:31:44;14.60;93.20
45491;DHT22;31237;45.586;13.782;2022-11-15T12:36:46;14.50;93.30
45491;DHT22;31237;45.586;13.782;2022-11-15T12:39:13;14.50;93.40
45491;DHT22;31237;45.586;13.782;2022-11-15T13:02:32;14.40;93.60
45491;DHT22;31237;45.586;13.782;2022-11-15T13:17:53;14.60;93.30
45491;DHT22;31237;45.586;13.782;2022-11-15T13:20:31;14.50;93.10
45491;DHT22;31237;45.586;13.782;2022-11-15T13:23:12;14.60;93.00
45491;DHT22;31237;45.586;13.782;2022-11-15T13:26:13;14.60;92.90
45491;DHT22;31237;45.586;13.782;2022-11-15T13:28:45;14.50;92.80
45491;DHT22;31237;45.586;13.782;2022-11-15T13:31:42;14.50;92.80
45491;DHT22;31237;45.586;13.782;2022-11-15T13:34:33;14.50;92.80
45491;DHT22;31237;45.586;13.782;2022-11-15T13:36:59;14.50;92.90
45491;DHT22;31237;45.586;13.782;2022-11-15T13:39:29;14.40;92.80
45491;DHT22;31237;45.586;13.782;2022-11-15T13:41:56;14.40;92.70
45491;DHT22;31237;45.586;13.782;2022-11-15T13:44:25;14.40;92.70
45491;DHT22;31237;45.586;13.782;2022-11-15T13:47:21;14.40;92.70
45491;DHT22;31237;45.586;13.782;2022-11-15T13:49:47;14.30;92.70
45491;DHT22;31237;45.586;13.782;2022-11-15T13:52:15;14.20;92.60
45491;DHT22;31237;45.586;13.782;2022-11-15T13:55:02;14.20;92.70
45491;DHT22;31237;45.586;13.782;2022-11-15T13:57:51;14.10;92.70
45491;DHT22;31237;45.586;13.782;2022-11-15T14:00:40;14.00;92.70
45491;DHT22;31237;45.586;13.782;2022-11-15T14:06:31;13.90;92.70
45491;DHT22;31237;45.586;13.782;2022-11-15T14:08:33;13.90;92.90
45491;DHT22;31237;45.586;13.782;2022-11-15T14:11:16;13.80;92.80
45491;DHT22;31237;45.586;13.782;2022-11-15T14:16:41;13.70;93.20
45491;DHT22;31237;45.586;13.782;2022-11-15T14:19:11;13.70;92.90
45491;DHT22;31237;45.586;13.782;2022-11-15T14:22:11;13.70;93.00
45491;DHT22;31237;45.586;13.782;2022-11-15T14:24:37;13.60;93.00
45491;DHT22;31237;45.586;13.782;2022-11-15T14:27:27;13.60;93.00
45491;DHT22;31237;45.586;13.782;2022-11-15T14:29:54;13.50;93.00
45491;DHT22;31237;45.586;13.782;2022-11-15T14:32:25;13.50;93.00
45491;DHT22;31237;45.586;13.782;2022-11-15T14:35:00;13.50;93.00
45491;DHT22;31237;45.586;13.782;2022-11-15T14:37:28;13.40;93.00
45491;DHT22;31237;45.586;13.782;2022-11-15T14:39:54;13.30;93.00
45491;DHT22;31237;45.586;13.782;2022-11-15T14:42:21;13.30;93.10
45491;DHT22;31237;45.586;13.782;2022-11-15T14:44:48;13.20;93.10
45491;DHT22;31237;45.586;13.782;2022-11-15T14:47:14;13.20;93.20
45491;DHT22;31237;45.586;13.782;2022-11-15T14:49:40;13.20;93.20
45491;DHT22;31237;45.586;13.782;2022-11-15T14:52:36;13.10;93.20
45491;DHT22;31237;45.586;13.782;2022-11-15T14:55:09;13.10;93.20
45491;DHT22;31237;45.586;13.782;2022-11-15T14:57:38;13.00;93.20
45491;DHT22;31237;45.586;13.782;2022-11-15T15:00:05;12.90;93.20
45491;DHT22;31237;45.586;13.782;2022-11-15T15:02:31;12.90;93.20
45491;DHT22;31237;45.586;13.782;2022-11-15T15:04:59;12.80;93.30
45491;DHT22;31237;45.586;13.782;2022-11-15T15:07:29;12.80;93.30
45491;DHT22;31237;45.586;13.782;2022-11-15T15:09:54;12.70;93.40
45491;DHT22;31237;45.586;13.782;2022-11-15T15:12:22;12.60;93.40
45491;DHT22;31237;45.586;13.782;2022-11-15T15:14:49;12.60;93.50
45491;DHT22;31237;45.586;13.782;2022-11-15T15:17:16;12.60;93.60
45491;DHT22;31237;45.586;13.782;2022-11-15T15:19:42;12.50;93.60
45491;DHT22;31237;45.586;13.782;2022-11-15T15:22:16;12.50;93.70
45491;DHT22;31237;45.586;13.782;2022-11-15T15:24:43;12.50;93.70
45491;DHT22;31237;45.586;13.782;2022-11-15T15:27:09;12.50;93.70
45491;DHT22;31237;45.586;13.782;2022-11-15T15:29:35;12.50;93.80
45491;DHT22;31237;45.586;13.782;2022-11-15T15:32:01;12.50;93.80
45491;DHT22;31237;45.586;13.782;2022-11-15T15:34:26;12.40;93.80
45491;DHT22;31237;45.586;13.782;2022-11-15T15:39:40;12.40;93.80
45491;DHT22;31237;45.586;13.782;2022-11-15T15:42:05;12.30;93.90
45491;DHT22;31237;45.586;13.782;2022-11-15T15:44:31;12.40;93.90
45491;DHT22;31237;45.586;13.782;2022-11-15T15:46:57;12.40;93.90
45491;DHT22;31237;45.586;13.782;2022-11-15T15:49:23;12.30;93.90
45491;DHT22;31237;45.586;13.782;2022-11-15T15:51:49;12.30;94.00
45491;DHT22;31237;45.586;13.782;2022-11-15T15:54:15;12.30;94.00
45491;DHT22;31237;45.586;13.782;2022-11-15T15:56:41;12.30;94.00
45491;DHT22;31237;45.586;13.782;2022-11-15T15:59:07;12.30;94.00
45491;DHT22;31237;45.586;13.782;2022-11-15T16:01:33;12.20;94.00
45491;DHT22;31237;45.586;13.782;2022-11-15T16:03:58;12.20;94.10
45491;DHT22;31237;45.586;13.782;2022-11-15T16:06:37;12.30;94.10
45491;DHT22;31237;45.586;13.782;2022-11-15T16:09:04;12.20;94.10
45491;DHT22;31237;45.586;13.782;2022-11-15T16:11:30;12.20;94.10
45491;DHT22;31237;45.586;13.782;2022-11-15T16:13:56;12.20;94.20
45491;DHT22;31237;45.586;13.782;2022-11-15T16:16:22;12.20;94.10
45491;DHT22;31237;45.586;13.782;2022-11-15T16:18:48;12.20;94.20
45491;DHT22;31237;45.586;13.782;2022-11-15T16:21:13;12.20;94.20
45491;DHT22;31237;45.586;13.782;2022-11-15T16:23:39;12.20;94.10
45491;DHT22;31237;45.586;13.782;2022-11-15T16:26:25;12.20;94.20
45491;DHT22;31237;45.586;13.782;2022-11-15T16:28:52;12.20;94.20
45491;DHT22;31237;45.586;13.782;2022-11-15T16:31:18;12.20;94.20
45491;DHT22;31237;45.586;13.782;2022-11-15T16:33:46;12.20;94.20
45491;DHT22;31237;45.586;13.782;2022-11-15T16:36:23;12.20;94.20
45491;DHT22;31237;45.586;13.782;2022-11-15T16:38:50;12.10;94.10
45491;DHT22;31237;45.586;13.782;2022-11-15T16:41:16;12.10;94.10
45491;DHT22;31237;45.586;13.782;2022-11-15T16:43:45;12.20;94.20
45491;DHT22;31237;45.586;13.782;2022-11-15T16:46:29;12.10;94.10
45491;DHT22;31237;45.586;13.782;2022-11-15T16:48:55;12.10;94.10
45491;DHT22;31237;45.586;13.782;2022-11-15T16:51:22;12.10;94.20
45491;DHT22;31237;45.586;13.782;2022-11-15T16:53:48;12.10;94.10
45491;DHT22;31237;45.586;13.782;2022-11-15T16:58:46;12.10;94.20
45491;DHT22;31237;45.586;13.782;2022-11-15T17:01:18;12.10;94.20
45491;DHT22;31237;45.586;13.782;2022-11-15T17:03:44;12.00;94.10
45491;DHT22;31237;45.586;13.782;2022-11-15T17:06:11;12.00;94.10
45491;DHT22;31237;45.586;13.782;2022-11-15T17:08:37;12.00;94.10
45491;DHT22;31237;45.586;13.782;2022-11-15T17:11:12;12.00;94.10
45491;DHT22;31237;45.586;13.782;2022-11-15T17:13:39;12.00;94.10
45491;DHT22;31237;45.586;13.782;2022-11-15T17:16:06;12.00;94.10
45491;DHT22;31237;45.586;13.782;2022-11-15T17:18:33;12.00;94.10
45491;DHT22;31237;45.586;13.782;2022-11-15T17:21:04;12.00;94.10
45491;DHT22;31237;45.586;13.782;2022-11-15T17:23:29;12.00;94.20
45491;DHT22;31237;45.586;13.782;2022-11-15T17:26:00;11.90;94.10
45491;DHT22;31237;45.586;13.782;2022-11-15T17:28:26;12.00;94.40
45491;DHT22;31237;45.586;13.782;2022-11-15T17:30:51;11.90;94.10
45491;DHT22;31237;45.586;13.782;2022-11-15T17:33:18;11.90;94.10
45491;DHT22;31237;45.586;13.782;2022-11-15T17:35:44;11.90;94.10
45491;DHT22;31237;45.586;13.782;2022-11-15T17:38:09;11.90;94.20
45491;DHT22;31237;45.586;13.782;2022-11-15T17:40:35;11.90;94.20
45491;DHT22;31237;45.586;13.782;2022-11-15T17:43:01;11.90;94.20
45491;DHT22;31237;45.586;13.782;2022-11-15T17:45:27;11.90;94.10
45491;DHT22;31237;45.586;13.782;2022-11-15T17:47:52;11.90;94.10
45491;DHT22;31237;45.586;13.782;2022-11-15T17:50:18;11.80;94.10